Terminal Aerodrome Forecast
Issued by NWS Portland, OR

Home | Current Version | Previous Version | Text Only | Print | Product List | Glossary On
Versions: 1 2 3 4 5 6 7 8 9 10 11 12 13 14 15 16 17 18 19 20 21 22 23 24 25 26 27 28 29 30 31 32
000
FTUS46 KPQR 281127
TAFSLE
TAF
KSLE 281127Z 2812/2912 18006KT P6SM -SHRA SCT040 OVC060
     FM281300 20004KT 6SM BR VCSH FEW008 SCT025 BKN035
     FM281600 20008KT P6SM VCSH FEW015 BKN040
     FM282000 23007KT P6SM VCSH SCT025 BKN040
     FM290600 21006KT P6SM -SHRA SCT015 OVC025=

USA.gov is the U.S. government's official web portal to all federal, state and local government web resources and services.